createdAt,value
2019-04-07T00:05:17.411Z,9.08
2019-04-07T00:20:30.872Z,8.94
2019-04-07T00:54:21.809Z,8.55
2019-04-07T00:57:08.958Z,8.51
2019-04-07T00:59:56.114Z,8.46
2019-04-07T01:15:07.796Z,8.17
2019-04-07T01:17:55.007Z,8.15
2019-04-07T01:20:41.888Z,8.13
2019-04-07T01:23:29.337Z,8.12
2019-04-07T01:26:17.362Z,8.11
2019-04-07T01:29:04.621Z,8.10
2019-04-07T01:31:58.602Z,8.08
2019-04-07T02:40:03.273Z,7.94
2019-04-07T02:42:48.519Z,8.06
2019-04-07T02:45:35.243Z,7.47
2019-04-07T04:18:37.612Z,5.65
2019-04-07T04:21:24.502Z,5.64
2019-04-07T04:36:36.058Z,5.66
2019-04-07T04:39:22.933Z,5.66
2019-04-07T04:42:10.438Z,5.67
2019-04-07T04:44:56.785Z,6.38
2019-04-07T04:57:09.341Z,5.75
2019-04-07T04:59:55.977Z,5.73
2019-04-07T05:12:08.384Z,5.60
2019-04-07T05:14:58.896Z,6.37
2019-04-07T05:17:52.621Z,5.88
2019-04-07T06:00:57.665Z,8.03
2019-04-07T06:03:44.521Z,7.69
2019-04-07T06:06:31.692Z,7.76
2019-04-07T06:12:26.357Z,8.00
2019-04-07T06:15:15.740Z,8.13
2019-04-07T06:18:01.524Z,8.27
2019-04-07T06:20:48.494Z,8.39
2019-04-07T06:23:35.358Z,8.56
2019-04-07T06:45:02.028Z,11.12
2019-04-07T06:47:51.921Z,10.78
2019-04-07T06:50:57.785Z,10.91
2019-04-07T06:53:38.164Z,11.02
2019-04-07T06:59:40.575Z,11.62
2019-04-07T07:06:01.193Z,11.87
2019-04-07T07:08:57.314Z,12.06
2019-04-07T07:11:59.346Z,12.26
2019-04-07T07:21:05.093Z,12.82
2019-04-07T07:30:12.094Z,13.82
2019-04-07T07:33:12.688Z,13.94
2019-04-07T07:35:59.546Z,14.09
2019-04-07T07:38:57.530Z,14.21
2019-04-07T07:47:54.869Z,14.86
2019-04-07T07:50:43.693Z,15.02
2019-04-07T07:53:44.961Z,15.19
2019-04-07T07:56:32.170Z,15.42
2019-04-07T07:59:19.996Z,16.68
2019-04-07T08:05:12.520Z,16.29
2019-04-07T08:08:00.599Z,16.43
2019-04-07T08:10:47.348Z,16.52
2019-04-07T08:13:41.770Z,16.67
2019-04-07T08:16:20.594Z,16.87
2019-04-07T08:19:09.391Z,17.08
2019-04-07T08:21:54.443Z,17.10
2019-04-07T08:24:41.550Z,17.21
2019-04-07T08:27:31.042Z,17.38
2019-04-07T08:30:15.332Z,17.47
2019-04-07T08:33:03.483Z,17.48
2019-04-07T08:35:50.228Z,17.60
2019-04-07T08:38:37.588Z,17.76
2019-04-07T08:41:24.473Z,17.80
2019-04-07T08:44:11.491Z,17.87
2019-04-07T08:46:58.194Z,18.04
2019-04-07T08:49:45.030Z,18.15
2019-04-07T08:52:32.200Z,18.22
2019-04-07T08:55:20.446Z,18.37
2019-04-07T08:58:06.670Z,18.47
2019-04-07T09:00:53.965Z,18.65
2019-04-07T09:03:44.451Z,18.77
2019-04-07T09:06:41.506Z,20.03
2019-04-07T09:09:34.474Z,19.37
2019-04-07T09:12:15.485Z,19.46
2019-04-07T09:15:04.368Z,19.50
2019-04-07T09:18:03.391Z,20.91
2019-04-07T09:21:10.162Z,20.14
2019-04-07T09:23:59.216Z,20.26
2019-04-07T09:26:54.475Z,20.44
2019-04-07T09:29:47.847Z,20.46
2019-04-07T09:32:41.637Z,20.39
2019-04-07T09:35:47.589Z,20.41
2019-04-07T09:38:45.962Z,20.06
2019-04-07T09:41:45.119Z,20.11
2019-04-07T09:44:43.810Z,20.08
2019-04-07T09:47:37.982Z,20.03
2019-04-07T09:53:50.525Z,20.18
2019-04-07T09:56:41.811Z,21.76
2019-04-07T09:59:35.022Z,21.03
2019-04-07T10:02:39.967Z,20.93
2019-04-07T10:05:26.792Z,20.94
2019-04-07T10:08:26.501Z,21.01
2019-04-07T10:11:17.141Z,21.01
2019-04-07T10:14:12.734Z,21.07
2019-04-07T10:17:05.457Z,21.08
2019-04-07T10:19:55.614Z,22.56
2019-04-07T10:22:42.978Z,21.75
2019-04-07T10:25:39.125Z,21.57
2019-04-07T10:28:44.181Z,21.64
2019-04-07T10:31:49.430Z,21.69
2019-04-07T10:38:04.008Z,21.66
2019-04-07T10:40:54.357Z,21.71
2019-04-07T10:43:56.192Z,21.73
2019-04-07T10:47:01.540Z,21.59
2019-04-07T10:50:08.783Z,21.65
2019-04-07T10:53:06.695Z,23.22
2019-04-07T10:56:12.720Z,22.21
2019-04-07T10:59:12.568Z,23.58
2019-04-07T11:05:26.068Z,22.50
2019-04-07T11:08:18.255Z,22.49
2019-04-07T11:11:23.153Z,22.71
2019-04-07T11:14:29.388Z,22.87
2019-04-07T11:17:19.378Z,22.73
2019-04-07T11:20:06.006Z,22.63
2019-04-07T11:22:59.088Z,22.64
2019-04-07T11:26:04.544Z,22.60
2019-04-07T11:28:53.759Z,22.96
2019-04-07T11:31:40.911Z,22.88
2019-04-07T11:38:00.351Z,22.68
2019-04-07T11:41:03.452Z,22.66
2019-04-07T11:43:53.385Z,22.64
2019-04-07T11:46:58.239Z,22.73
2019-04-07T11:49:46.104Z,24.45
2019-04-07T11:52:33.337Z,23.46
2019-04-07T11:55:26.204Z,23.36
2019-04-07T11:58:33.410Z,23.30
2019-04-07T12:01:24.209Z,23.47
2019-04-07T12:04:13.961Z,23.59
2019-04-07T12:07:19.093Z,23.70
2019-04-07T12:10:06.502Z,23.77
2019-04-07T12:13:00.201Z,23.73
2019-04-07T12:15:46.353Z,23.76
2019-04-07T12:18:36.398Z,23.79
2019-04-07T12:21:25.456Z,23.86
2019-04-07T12:24:25.928Z,24.02
2019-04-07T12:27:23.931Z,25.59
2019-04-07T12:30:13.253Z,24.52
2019-04-07T12:33:09.008Z,24.42
2019-04-07T12:36:14.335Z,24.17
2019-04-07T12:39:01.778Z,23.84
2019-04-07T12:42:08.302Z,25.37
2019-04-07T12:44:55.976Z,24.17
2019-04-07T12:47:45.949Z,24.07
2019-04-07T12:50:33.809Z,23.96
2019-04-07T12:53:38.969Z,24.04
2019-04-07T12:56:43.516Z,23.78
2019-04-07T12:59:33.700Z,23.86
2019-04-07T13:02:27.169Z,23.87
2019-04-07T13:05:34.592Z,25.30
2019-04-07T13:08:24.007Z,24.17
2019-04-07T13:11:24.685Z,24.09
2019-04-07T13:14:03.631Z,24.06
2019-04-07T13:17:07.340Z,23.84
2019-04-07T13:19:53.477Z,23.85
2019-04-07T13:22:49.966Z,24.07
2019-04-07T13:25:37.496Z,24.17
2019-04-07T13:28:27.193Z,25.46
2019-04-07T13:31:26.371Z,25.78
2019-04-07T13:34:31.067Z,24.52
2019-04-07T13:40:31.721Z,23.96
2019-04-07T13:43:19.027Z,23.99
2019-04-07T13:46:37.951Z,24.04
2019-04-07T13:49:42.202Z,24.05
2019-04-07T13:52:32.378Z,25.48
2019-04-07T13:55:40.942Z,24.60
2019-04-07T13:58:32.967Z,24.24
2019-04-07T14:01:18.592Z,24.26
2019-04-07T14:04:16.737Z,24.20
2019-04-07T14:07:21.912Z,24.20
2019-04-07T14:10:14.662Z,24.24
2019-04-07T14:13:06.227Z,24.19
2019-04-07T14:16:07.480Z,23.66
2019-04-07T14:19:03.602Z,23.26
2019-04-07T14:22:03.300Z,23.33
2019-04-07T14:24:52.708Z,23.42
2019-04-07T14:27:47.322Z,23.56
2019-04-07T14:30:49.905Z,24.86
2019-04-07T14:33:55.653Z,23.89
2019-04-07T14:36:45.764Z,23.73
2019-04-07T14:39:33.393Z,23.77
2019-04-07T14:42:20.436Z,23.68
2019-04-07T14:45:27.080Z,23.72
2019-04-07T14:48:31.488Z,23.78
2019-04-07T14:51:21.546Z,23.62
2019-04-07T14:54:19.511Z,23.41
2019-04-07T14:57:15.428Z,23.26
2019-04-07T15:00:02.169Z,23.16
2019-04-07T15:02:49.852Z,22.99
2019-04-07T15:05:45.064Z,24.21
2019-04-07T15:08:32.934Z,24.42
2019-04-07T15:11:25.745Z,23.24
2019-04-07T15:14:13.571Z,23.10
2019-04-07T15:17:00.378Z,23.06
2019-04-07T15:19:47.727Z,23.02
2019-04-07T15:22:34.619Z,24.12
2019-04-07T15:25:21.551Z,23.23
2019-04-07T15:28:09.017Z,24.24
2019-04-07T15:30:56.819Z,23.27
2019-04-07T15:33:43.518Z,22.90
2019-04-07T15:36:31.115Z,22.94
2019-04-07T15:39:18.286Z,23.50
2019-04-07T15:42:06.509Z,24.23
2019-04-07T15:48:00.594Z,24.91
2019-04-07T15:50:46.284Z,25.00
2019-04-07T15:53:51.529Z,25.08
2019-04-07T15:56:34.368Z,25.31
2019-04-07T15:59:21.626Z,25.37
2019-04-07T16:02:10.824Z,25.29
2019-04-07T16:05:03.709Z,25.20
2019-04-07T16:07:53.192Z,25.18
2019-04-07T16:10:36.331Z,25.21
2019-04-07T16:13:23.858Z,25.42
2019-04-07T16:16:10.085Z,25.57
2019-04-07T16:18:57.983Z,26.92
2019-04-07T16:21:45.699Z,25.68
2019-04-07T16:24:32.770Z,24.95
2019-04-07T16:27:19.600Z,26.11
2019-04-07T16:30:08.548Z,25.18
2019-04-07T16:32:54.842Z,24.58
2019-04-07T16:35:43.931Z,25.34
2019-04-07T16:38:30.210Z,23.80
2019-04-07T16:41:16.760Z,23.43
2019-04-07T16:44:07.006Z,24.42
2019-04-07T16:46:54.673Z,23.20
2019-04-07T16:49:38.239Z,22.41
2019-04-07T16:52:26.567Z,21.85
2019-04-07T16:55:31.504Z,21.43
2019-04-07T17:01:25.423Z,20.64
2019-04-07T17:04:14.796Z,20.26
2019-04-07T17:07:05.021Z,19.93
2019-04-07T17:09:48.937Z,19.57
2019-04-07T17:12:43.916Z,19.26
2019-04-07T17:15:30.039Z,18.97
2019-04-07T17:18:35.589Z,18.76
2019-04-07T17:21:22.901Z,18.49
2019-04-07T17:24:11.115Z,19.27
2019-04-07T17:26:58.233Z,18.38
2019-04-07T17:29:46.751Z,18.11
2019-04-07T17:32:35.459Z,17.87
2019-04-07T17:35:19.402Z,17.70
2019-04-07T17:38:06.876Z,17.48
2019-04-07T17:40:53.351Z,17.27
2019-04-07T17:43:49.426Z,17.04
2019-04-07T17:46:36.597Z,16.75
2019-04-07T17:49:26.316Z,16.46
2019-04-07T17:52:29.115Z,16.18
2019-04-07T17:55:25.257Z,15.88
2019-04-07T17:58:10.046Z,15.69
2019-04-07T18:00:56.527Z,15.50
2019-04-07T18:03:47.325Z,16.23
2019-04-07T18:09:44.918Z,16.03
2019-04-07T18:12:45.454Z,15.19
2019-04-07T18:15:36.270Z,14.90
2019-04-07T18:18:30.403Z,14.69
2019-04-07T18:21:35.029Z,14.51
2019-04-07T18:24:22.698Z,14.32
2019-04-07T18:27:17.123Z,14.19
2019-04-07T18:30:08.311Z,14.06
2019-04-07T18:32:54.263Z,13.98
2019-04-07T18:35:44.160Z,13.93
2019-04-07T18:41:52.083Z,13.83
2019-04-07T18:44:41.221Z,13.81
2019-04-07T18:51:13.228Z,13.73
2019-04-07T18:54:00.355Z,13.76
2019-04-07T18:56:59.192Z,13.82
2019-04-07T19:00:03.883Z,13.75
2019-04-07T19:03:00.433Z,14.38
2019-04-07T19:06:06.034Z,13.79
2019-04-07T19:08:54.383Z,13.58
2019-04-07T19:11:47.026Z,13.44
2019-04-07T19:14:44.480Z,14.04
2019-04-07T19:17:28.171Z,13.34
2019-04-07T19:20:34.125Z,13.07
2019-04-07T19:23:27.170Z,12.85
2019-04-07T19:29:43.900Z,12.68
2019-04-07T19:32:38.811Z,12.62
2019-04-07T19:35:28.249Z,12.57
2019-04-07T19:41:11.038Z,12.75
2019-04-07T19:43:58.386Z,12.58
2019-04-07T19:46:48.653Z,12.50
2019-04-07T19:49:38.970Z,12.45
2019-04-07T19:52:43.896Z,12.41
2019-04-07T19:55:40.778Z,13.09
2019-04-07T19:58:45.648Z,13.25
2019-04-07T20:01:42.210Z,12.66
2019-04-07T20:04:28.767Z,13.26
2019-04-07T20:07:23.064Z,12.70
2019-04-07T20:10:28.611Z,13.27
2019-04-07T20:13:19.882Z,12.62
2019-04-07T20:19:38.237Z,12.36
2019-04-07T20:22:29.089Z,12.29
2019-04-07T20:25:35.223Z,12.18
2019-04-07T20:28:32.485Z,12.06
2019-04-07T20:34:30.831Z,12.73
2019-04-07T20:37:26.207Z,12.90
2019-04-07T20:40:23.642Z,12.37
2019-04-07T20:43:25.594Z,12.28
2019-04-07T20:46:31.612Z,12.22
2019-04-07T21:28:41.209Z,11.26
2019-04-07T21:31:28.737Z,11.24
2019-04-07T21:34:26.920Z,11.24
2019-04-07T21:56:48.873Z,11.10
2019-04-07T22:19:15.098Z,10.51
2019-04-07T22:40:42.530Z,11.12
2019-04-07T23:24:10.944Z,9.34
2019-04-07T23:26:58.529Z,9.29
2019-04-07T23:29:44.709Z,9.28
2019-04-07T23:44:56.039Z,9.39
2019-04-07T23:47:45.868Z,9.99
